Cape Coral, FL (33914)

3:48 AM EDT on August 30, 2016 (GMT -0400)
Cape Coral Pkwy, Skyline Blvd | | Change Station

Elev 18 ft 26.57 °N, 82.00 °W | Updated 11 seconds ago

Clear
Clear
75.6 °F
Feels Like 75 °F
N
2.0
Wind Variable Wind from ESE
Gusts 5.0 mph

Today
High -- | Low -- °F
--% Chance of Precip.
Yesterday
High -- | Low -- °F
Precip. -- in
Pressure 29.89 in
Visibility 10.0 miles
Clouds Clear
Heat Index 75 °F
Dew Point 74 °F
Humidity 93%
Rainfall 0.00 in
Snow Depth Not available.
7:07 AM 7:49 PM
Waning Crescent, 5% visible
METAR KFMY 300653Z AUTO 11005KT 10SM CLR 24/24 A2988 RMK AO2 SLP122 T02440239
Pressure 29.89 in
Visibility 10.0 miles
Clouds Clear
Heat Index 75 °F
Dew Point 74 °F
Humidity 93%
Rainfall 0.00 in
Snow Depth Not available.
7:07 AM 7:49 PM
Waning Crescent, 5% visible
METAR KFMY 300653Z AUTO 11005KT 10SM CLR 24/24 A2988 RMK AO2 SLP122 T02440239

10-Day Weather Forecast

Almanac

Astronomy

Aug. 30, 2016 Rise Set
Actual Time
Civil Twilight
Nautical Twilight
Astronomical Twilight
Moon
Length of Visible Light
Length of Day
Tomorrow will be .
, % of the Moon is Illuminated

Today's Extremes

State Highs State Lows

Community

WunderPhotos

Upload Photos

1,935,795 photos uploaded!

WunderBlog® & News

Nearby

Air Quality

  Air Quality AQ Index Pollutant
Not available.

Snow Depth

Station Depth Elevation

Earthquake Activity

City Distance Mag. Time & Date
Minimum magnitude displayed is 2.5.

Coastal Water Temperatures

Place Temperature

Stations

Nearby Weather Stations

Station Location Temp. Windchill Dew Point Humidity Wind Precip. Elev Updated Type
                   

Watches & Warnings

There are currently no watches in effect.